sensor_id;sensor_type;location;lat;lon;timestamp;pressure;altitude;pressure_sealevel;temperature;humidity
804;BME280;25687;49.976;8.240;2023-12-14T00:01:34;99074.31;;;2.18;100.00
804;BME280;25687;49.976;8.240;2023-12-14T00:04:00;99078.53;;;2.19;100.00
804;BME280;25687;49.976;8.240;2023-12-14T00:06:25;99090.00;;;2.05;100.00
804;BME280;25687;49.976;8.240;2023-12-14T00:08:50;99095.19;;;2.02;100.00
804;BME280;25687;49.976;8.240;2023-12-14T00:11:15;99093.19;;;2.10;100.00
804;BME280;25687;49.976;8.240;2023-12-14T00:13:41;99107.81;;;2.04;100.00
804;BME280;25687;49.976;8.240;2023-12-14T00:16:07;99105.06;;;1.85;100.00
804;BME280;25687;49.976;8.240;2023-12-14T00:18:32;99118.03;;;2.01;100.00
804;BME280;25687;49.976;8.240;2023-12-14T00:20:58;99118.09;;;1.99;100.00
804;BME280;25687;49.976;8.240;2023-12-14T00:23:23;99126.59;;;1.98;100.00
804;BME280;25687;49.976;8.240;2023-12-14T00:25:49;99130.00;;;1.97;100.00
804;BME280;25687;49.976;8.240;2023-12-14T00:28:14;99132.72;;;1.92;100.00
804;BME280;25687;49.976;8.240;2023-12-14T00:30:40;99130.22;;;1.91;100.00
804;BME280;25687;49.976;8.240;2023-12-14T00:33:05;99136.34;;;1.85;100.00
804;BME280;25687;49.976;8.240;2023-12-14T00:35:30;99140.63;;;1.83;100.00
804;BME280;25687;49.976;8.240;2023-12-14T00:37:56;99138.38;;;1.75;100.00
804;BME280;25687;49.976;8.240;2023-12-14T00:40:21;99138.41;;;1.74;100.00
804;BME280;25687;49.976;8.240;2023-12-14T00:42:46;99144.44;;;1.70;100.00
804;BME280;25687;49.976;8.240;2023-12-14T00:45:12;99144.44;;;1.70;100.00
804;BME280;25687;49.976;8.240;2023-12-14T00:47:37;99148.78;;;1.66;100.00
804;BME280;25687;49.976;8.240;2023-12-14T00:50:02;99150.50;;;1.66;100.00
804;BME280;25687;49.976;8.240;2023-12-14T00:52:28;99163.09;;;1.69;100.00
804;BME280;25687;49.976;8.240;2023-12-14T00:54:53;99166.19;;;1.52;100.00
804;BME280;25687;49.976;8.240;2023-12-14T00:57:18;99169.47;;;1.54;100.00
804;BME280;25687;49.976;8.240;2023-12-14T00:59:43;99173.00;;;1.50;100.00
804;BME280;25687;49.976;8.240;2023-12-14T01:02:09;99178.13;;;1.48;100.00
804;BME280;25687;49.976;8.240;2023-12-14T01:04:34;99190.31;;;1.37;100.00
804;BME280;25687;49.976;8.240;2023-12-14T01:06:59;99188.91;;;1.26;100.00
804;BME280;25687;49.976;8.240;2023-12-14T01:09:25;99199.09;;;1.25;100.00
804;BME280;25687;49.976;8.240;2023-12-14T01:11:50;99198.47;;;1.45;100.00
804;BME280;25687;49.976;8.240;2023-12-14T01:14:16;99210.53;;;1.38;100.00
804;BME280;25687;49.976;8.240;2023-12-14T01:16:41;99224.00;;;1.40;100.00
804;BME280;25687;49.976;8.240;2023-12-14T01:19:06;99228.13;;;1.43;100.00
804;BME280;25687;49.976;8.240;2023-12-14T01:21:32;99227.25;;;1.44;100.00
804;BME280;25687;49.976;8.240;2023-12-14T01:23:57;99233.28;;;1.40;100.00
804;BME280;25687;49.976;8.240;2023-12-14T01:26:22;99232.56;;;1.63;100.00
804;BME280;25687;49.976;8.240;2023-12-14T01:28:48;99243.50;;;1.65;100.00
804;BME280;25687;49.976;8.240;2023-12-14T01:31:13;99238.66;;;1.57;100.00
804;BME280;25687;49.976;8.240;2023-12-14T01:33:38;99241.78;;;1.66;100.00
804;BME280;25687;49.976;8.240;2023-12-14T01:36:04;99250.25;;;1.65;100.00
804;BME280;25687;49.976;8.240;2023-12-14T01:38:29;99256.25;;;1.62;100.00
804;BME280;25687;49.976;8.240;2023-12-14T01:40:54;99262.19;;;1.63;100.00
804;BME280;25687;49.976;8.240;2023-12-14T01:43:21;99259.84;;;1.56;100.00
804;BME280;25687;49.976;8.240;2023-12-14T01:45:46;99270.84;;;1.55;100.00
804;BME280;25687;49.976;8.240;2023-12-14T01:48:11;99275.38;;;1.45;100.00
804;BME280;25687;49.976;8.240;2023-12-14T01:50:37;99270.41;;;1.41;100.00
804;BME280;25687;49.976;8.240;2023-12-14T01:53:02;99276.19;;;1.46;100.00
804;BME280;25687;49.976;8.240;2023-12-14T01:55:27;99279.31;;;1.54;100.00
804;BME280;25687;49.976;8.240;2023-12-14T01:57:53;99275.06;;;1.55;100.00
804;BME280;25687;49.976;8.240;2023-12-14T02:00:28;99279.19;;;1.59;100.00
804;BME280;25687;49.976;8.240;2023-12-14T02:02:55;99280.25;;;1.52;100.00
804;BME280;25687;49.976;8.240;2023-12-14T02:05:21;99280.31;;;1.49;100.00
804;BME280;25687;49.976;8.240;2023-12-14T02:07:46;99294.59;;;1.53;100.00
804;BME280;25687;49.976;8.240;2023-12-14T02:10:12;99295.31;;;1.56;100.00
804;BME280;25687;49.976;8.240;2023-12-14T02:12:37;99297.88;;;1.55;100.00
804;BME280;25687;49.976;8.240;2023-12-14T02:15:02;99304.16;;;1.71;100.00
804;BME280;25687;49.976;8.240;2023-12-14T02:17:28;99305.59;;;1.78;100.00
804;BME280;25687;49.976;8.240;2023-12-14T02:19:53;99306.50;;;1.77;100.00
804;BME280;25687;49.976;8.240;2023-12-14T02:22:18;99300.81;;;1.98;100.00
804;BME280;25687;49.976;8.240;2023-12-14T02:24:44;99316.84;;;1.98;100.00
804;BME280;25687;49.976;8.240;2023-12-14T02:27:09;99320.91;;;2.04;100.00
804;BME280;25687;49.976;8.240;2023-12-14T02:29:34;99328.59;;;2.01;100.00
804;BME280;25687;49.976;8.240;2023-12-14T02:32:00;99324.59;;;2.20;100.00
804;BME280;25687;49.976;8.240;2023-12-14T02:34:25;99322.72;;;2.25;100.00
804;BME280;25687;49.976;8.240;2023-12-14T02:36:50;99325.94;;;2.31;100.00
804;BME280;25687;49.976;8.240;2023-12-14T02:39:15;99325.59;;;2.41;100.00
804;BME280;25687;49.976;8.240;2023-12-14T02:41:41;99328.44;;;2.57;100.00
804;BME280;25687;49.976;8.240;2023-12-14T02:44:06;99327.03;;;2.49;100.00
804;BME280;25687;49.976;8.240;2023-12-14T02:46:31;99326.84;;;2.55;100.00
804;BME280;25687;49.976;8.240;2023-12-14T02:48:56;99330.00;;;2.62;100.00
804;BME280;25687;49.976;8.240;2023-12-14T02:51:22;99334.72;;;2.72;100.00
804;BME280;25687;49.976;8.240;2023-12-14T02:53:47;99335.91;;;2.62;100.00
804;BME280;25687;49.976;8.240;2023-12-14T02:56:12;99336.69;;;2.64;100.00
804;BME280;25687;49.976;8.240;2023-12-14T02:58:38;99345.00;;;2.93;100.00
804;BME280;25687;49.976;8.240;2023-12-14T03:01:03;99349.66;;;3.05;100.00
804;BME280;25687;49.976;8.240;2023-12-14T03:03:29;99351.97;;;3.12;100.00
804;BME280;25687;49.976;8.240;2023-12-14T03:05:54;99347.34;;;2.99;100.00
804;BME280;25687;49.976;8.240;2023-12-14T03:08:20;99357.88;;;3.12;100.00
804;BME280;25687;49.976;8.240;2023-12-14T03:10:45;99363.47;;;2.98;100.00
804;BME280;25687;49.976;8.240;2023-12-14T03:13:10;99361.53;;;3.05;100.00
804;BME280;25687;49.976;8.240;2023-12-14T03:15:35;99364.25;;;3.00;100.00
804;BME280;25687;49.976;8.240;2023-12-14T03:18:01;99370.16;;;3.01;100.00
804;BME280;25687;49.976;8.240;2023-12-14T03:20:28;99371.31;;;3.16;100.00
804;BME280;25687;49.976;8.240;2023-12-14T03:22:53;99379.78;;;3.40;100.00
804;BME280;25687;49.976;8.240;2023-12-14T03:25:18;99380.31;;;3.48;100.00
804;BME280;25687;49.976;8.240;2023-12-14T03:27:44;99378.47;;;3.52;100.00
804;BME280;25687;49.976;8.240;2023-12-14T03:30:09;99379.56;;;3.46;100.00
804;BME280;25687;49.976;8.240;2023-12-14T03:32:35;99385.59;;;3.44;100.00
804;BME280;25687;49.976;8.240;2023-12-14T03:35:00;99384.91;;;3.38;100.00
804;BME280;25687;49.976;8.240;2023-12-14T03:37:25;99388.06;;;3.45;100.00
804;BME280;25687;49.976;8.240;2023-12-14T03:39:51;99386.50;;;3.41;100.00
804;BME280;25687;49.976;8.240;2023-12-14T03:42:16;99399.00;;;3.47;100.00
804;BME280;25687;49.976;8.240;2023-12-14T03:44:41;99397.28;;;3.48;100.00
804;BME280;25687;49.976;8.240;2023-12-14T03:47:07;99401.38;;;3.52;100.00
804;BME280;25687;49.976;8.240;2023-12-14T03:49:37;99400.03;;;3.65;100.00
804;BME280;25687;49.976;8.240;2023-12-14T03:52:03;99405.16;;;3.87;100.00
804;BME280;25687;49.976;8.240;2023-12-14T03:54:29;99405.63;;;3.75;100.00
804;BME280;25687;49.976;8.240;2023-12-14T03:56:54;99417.28;;;3.81;100.00
804;BME280;25687;49.976;8.240;2023-12-14T03:59:19;99419.69;;;3.84;100.00
804;BME280;25687;49.976;8.240;2023-12-14T04:01:45;99417.28;;;3.81;100.00
804;BME280;25687;49.976;8.240;2023-12-14T04:04:10;99425.84;;;3.78;100.00
804;BME280;25687;49.976;8.240;2023-12-14T04:06:35;99430.53;;;3.89;100.00
804;BME280;25687;49.976;8.240;2023-12-14T04:09:01;99431.84;;;3.77;100.00
804;BME280;25687;49.976;8.240;2023-12-14T04:11:26;99436.34;;;3.93;100.00
804;BME280;25687;49.976;8.240;2023-12-14T04:13:51;99433.38;;;4.03;100.00
804;BME280;25687;49.976;8.240;2023-12-14T04:16:22;99442.38;;;3.90;100.00
804;BME280;25687;49.976;8.240;2023-12-14T04:18:48;99438.78;;;3.72;100.00
804;BME280;25687;49.976;8.240;2023-12-14T04:21:13;99442.25;;;3.71;100.00
804;BME280;25687;49.976;8.240;2023-12-14T04:23:39;99437.63;;;3.81;100.00
804;BME280;25687;49.976;8.240;2023-12-14T04:26:04;99451.84;;;3.86;100.00
804;BME280;25687;49.976;8.240;2023-12-14T04:28:29;99461.38;;;4.03;100.00
804;BME280;25687;49.976;8.240;2023-12-14T04:30:55;99466.63;;;3.99;100.00
804;BME280;25687;49.976;8.240;2023-12-14T04:33:20;99464.19;;;4.19;100.00
804;BME280;25687;49.976;8.240;2023-12-14T04:35:45;99471.75;;;4.21;100.00
804;BME280;25687;49.976;8.240;2023-12-14T04:38:10;99478.75;;;4.38;100.00
804;BME280;25687;49.976;8.240;2023-12-14T04:40:36;99478.31;;;4.49;100.00
804;BME280;25687;49.976;8.240;2023-12-14T04:43:01;99483.28;;;4.52;100.00
804;BME280;25687;49.976;8.240;2023-12-14T04:45:26;99487.03;;;4.65;100.00
804;BME280;25687;49.976;8.240;2023-12-14T04:47:51;99491.66;;;4.76;100.00
804;BME280;25687;49.976;8.240;2023-12-14T04:50:17;99496.66;;;4.79;100.00
804;BME280;25687;49.976;8.240;2023-12-14T04:52:42;99491.41;;;4.82;100.00
804;BME280;25687;49.976;8.240;2023-12-14T04:55:08;99496.72;;;4.78;100.00
804;BME280;25687;49.976;8.240;2023-12-14T04:57:33;99495.53;;;4.64;100.00
804;BME280;25687;49.976;8.240;2023-12-14T04:59:58;99507.25;;;4.68;100.00
804;BME280;25687;49.976;8.240;2023-12-14T05:02:24;99508.34;;;4.63;100.00
804;BME280;25687;49.976;8.240;2023-12-14T05:04:49;99509.94;;;4.43;100.00
804;BME280;25687;49.976;8.240;2023-12-14T05:07:15;99521.50;;;4.52;100.00
804;BME280;25687;49.976;8.240;2023-12-14T05:09:40;99524.28;;;4.68;100.00
804;BME280;25687;49.976;8.240;2023-12-14T05:12:05;99533.22;;;4.56;100.00
804;BME280;25687;49.976;8.240;2023-12-14T05:14:31;99528.66;;;4.64;100.00
804;BME280;25687;49.976;8.240;2023-12-14T05:16:56;99536.06;;;4.71;100.00
804;BME280;25687;49.976;8.240;2023-12-14T05:19:21;99536.41;;;4.83;100.00
804;BME280;25687;49.976;8.240;2023-12-14T05:21:47;99543.88;;;4.88;100.00
804;BME280;25687;49.976;8.240;2023-12-14T05:24:12;99545.22;;;4.97;100.00
804;BME280;25687;49.976;8.240;2023-12-14T05:26:37;99549.81;;;5.09;100.00
804;BME280;25687;49.976;8.240;2023-12-14T05:29:02;99552.50;;;5.06;100.00
804;BME280;25687;49.976;8.240;2023-12-14T05:31:28;99553.97;;;5.12;100.00
804;BME280;25687;49.976;8.240;2023-12-14T05:33:53;99565.41;;;5.24;100.00
804;BME280;25687;49.976;8.240;2023-12-14T05:36:18;99560.22;;;5.25;100.00
804;BME280;25687;49.976;8.240;2023-12-14T05:38:44;99562.59;;;5.30;100.00
804;BME280;25687;49.976;8.240;2023-12-14T05:41:09;99568.41;;;5.33;100.00
804;BME280;25687;49.976;8.240;2023-12-14T05:43:35;99570.63;;;5.41;100.00
804;BME280;25687;49.976;8.240;2023-12-14T05:46:01;99573.69;;;5.49;100.00
804;BME280;25687;49.976;8.240;2023-12-14T05:48:27;99589.53;;;5.36;100.00
804;BME280;25687;49.976;8.240;2023-12-14T05:50:53;99596.31;;;5.37;100.00
804;BME280;25687;49.976;8.240;2023-12-14T05:53:18;99587.84;;;5.36;100.00
804;BME280;25687;49.976;8.240;2023-12-14T05:55:44;99599.47;;;5.43;100.00
804;BME280;25687;49.976;8.240;2023-12-14T05:58:09;99601.94;;;5.45;100.00
804;BME280;25687;49.976;8.240;2023-12-14T06:00:35;99607.97;;;5.22;100.00
804;BME280;25687;49.976;8.240;2023-12-14T06:03:01;99609.69;;;5.21;100.00
804;BME280;25687;49.976;8.240;2023-12-14T06:05:27;99617.34;;;5.21;100.00
804;BME280;25687;49.976;8.240;2023-12-14T06:07:52;99626.47;;;5.27;100.00
804;BME280;25687;49.976;8.240;2023-12-14T06:10:17;99638.22;;;5.31;100.00
804;BME280;25687;49.976;8.240;2023-12-14T06:12:43;99638.91;;;5.34;100.00
804;BME280;25687;49.976;8.240;2023-12-14T06:15:08;99636.09;;;5.41;100.00
804;BME280;25687;49.976;8.240;2023-12-14T06:17:34;99638.28;;;5.50;100.00
804;BME280;25687;49.976;8.240;2023-12-14T06:20:02;99646.72;;;5.52;100.00
804;BME280;25687;49.976;8.240;2023-12-14T06:22:29;99656.66;;;5.58;100.00
804;BME280;25687;49.976;8.240;2023-12-14T06:24:54;99667.69;;;5.59;100.00
804;BME280;25687;49.976;8.240;2023-12-14T06:27:20;99657.25;;;5.65;100.00
804;BME280;25687;49.976;8.240;2023-12-14T06:29:47;99667.19;;;5.71;100.00
804;BME280;25687;49.976;8.240;2023-12-14T06:32:12;99671.00;;;5.81;100.00
804;BME280;25687;49.976;8.240;2023-12-14T06:34:38;99674.09;;;5.90;100.00
804;BME280;25687;49.976;8.240;2023-12-14T06:37:03;99685.81;;;5.94;100.00
804;BME280;25687;49.976;8.240;2023-12-14T06:39:28;99683.94;;;5.99;100.00
804;BME280;25687;49.976;8.240;2023-12-14T06:41:54;99694.81;;;6.04;100.00
804;BME280;25687;49.976;8.240;2023-12-14T06:44:19;99691.41;;;6.04;100.00
804;BME280;25687;49.976;8.240;2023-12-14T06:46:44;99692.25;;;6.04;100.00
804;BME280;25687;49.976;8.240;2023-12-14T06:49:09;99690.94;;;6.14;100.00
804;BME280;25687;49.976;8.240;2023-12-14T06:51:35;99694.59;;;6.09;100.00
804;BME280;25687;49.976;8.240;2023-12-14T06:54:00;99703.03;;;6.11;100.00
804;BME280;25687;49.976;8.240;2023-12-14T06:56:25;99716.50;;;6.14;100.00
804;BME280;25687;49.976;8.240;2023-12-14T06:58:51;99712.41;;;6.10;100.00
804;BME280;25687;49.976;8.240;2023-12-14T07:01:16;99720.97;;;6.09;100.00
804;BME280;25687;49.976;8.240;2023-12-14T07:03:45;99724.53;;;6.05;100.00
804;BME280;25687;49.976;8.240;2023-12-14T07:06:14;99722.13;;;6.02;100.00
804;BME280;25687;49.976;8.240;2023-12-14T07:08:40;99731.28;;;6.06;100.00
804;BME280;25687;49.976;8.240;2023-12-14T07:11:09;99744.22;;;6.03;100.00
804;BME280;25687;49.976;8.240;2023-12-14T07:13:35;99744.06;;;6.06;100.00
804;BME280;25687;49.976;8.240;2023-12-14T07:16:05;99746.00;;;6.22;100.00
804;BME280;25687;49.976;8.240;2023-12-14T07:18:31;99752.69;;;6.24;100.00
804;BME280;25687;49.976;8.240;2023-12-14T07:20:56;99756.03;;;6.26;100.00
804;BME280;25687;49.976;8.240;2023-12-14T07:23:21;99754.03;;;6.33;100.00
804;BME280;25687;49.976;8.240;2023-12-14T07:25:46;99757.47;;;6.32;100.00
804;BME280;25687;49.976;8.240;2023-12-14T07:28:12;99761.16;;;6.45;100.00
804;BME280;25687;49.976;8.240;2023-12-14T07:30:37;99765.38;;;6.46;100.00
804;BME280;25687;49.976;8.240;2023-12-14T07:33:02;99781.69;;;6.44;100.00
804;BME280;25687;49.976;8.240;2023-12-14T07:35:27;99786.53;;;6.50;100.00
804;BME280;25687;49.976;8.240;2023-12-14T07:37:52;99788.38;;;6.46;100.00
804;BME280;25687;49.976;8.240;2023-12-14T07:40:18;99789.19;;;6.47;100.00
804;BME280;25687;49.976;8.240;2023-12-14T07:42:43;99800.91;;;6.53;100.00
804;BME280;25687;49.976;8.240;2023-12-14T07:45:09;99804.00;;;6.59;100.00
804;BME280;25687;49.976;8.240;2023-12-14T07:47:34;99806.44;;;6.42;100.00
804;BME280;25687;49.976;8.240;2023-12-14T07:50:00;99815.38;;;6.52;100.00
804;BME280;25687;49.976;8.240;2023-12-14T07:52:25;99812.63;;;6.57;100.00
804;BME280;25687;49.976;8.240;2023-12-14T07:54:50;99816.66;;;6.62;100.00
804;BME280;25687;49.976;8.240;2023-12-14T07:57:15;99826.69;;;6.67;100.00
804;BME280;25687;49.976;8.240;2023-12-14T07:59:41;99820.69;;;6.68;100.00
804;BME280;25687;49.976;8.240;2023-12-14T08:02:06;99827.53;;;6.68;100.00
804;BME280;25687;49.976;8.240;2023-12-14T08:04:31;99839.78;;;6.59;100.00
804;BME280;25687;49.976;8.240;2023-12-14T08:06:58;99848.09;;;6.65;100.00
804;BME280;25687;49.976;8.240;2023-12-14T08:09:23;99850.00;;;6.59;100.00
804;BME280;25687;49.976;8.240;2023-12-14T08:11:49;99851.41;;;6.67;100.00
804;BME280;25687;49.976;8.240;2023-12-14T08:14:15;99846.88;;;6.73;100.00
804;BME280;25687;49.976;8.240;2023-12-14T08:16:40;99849.69;;;6.67;100.00
804;BME280;25687;49.976;8.240;2023-12-14T08:19:05;99858.06;;;6.71;100.00
804;BME280;25687;49.976;8.240;2023-12-14T08:21:30;99856.91;;;6.78;100.00
804;BME280;25687;49.976;8.240;2023-12-14T08:23:56;99864.38;;;6.83;100.00
804;BME280;25687;49.976;8.240;2023-12-14T08:26:21;99868.34;;;6.90;100.00
804;BME280;25687;49.976;8.240;2023-12-14T08:28:46;99873.03;;;6.99;100.00
804;BME280;25687;49.976;8.240;2023-12-14T08:31:12;99873.91;;;7.00;100.00
804;BME280;25687;49.976;8.240;2023-12-14T08:33:37;99881.09;;;7.10;100.00
804;BME280;25687;49.976;8.240;2023-12-14T08:36:03;99882.19;;;7.05;100.00
804;BME280;25687;49.976;8.240;2023-12-14T08:38:30;99890.56;;;7.08;100.00
804;BME280;25687;49.976;8.240;2023-12-14T08:40:55;99894.03;;;7.07;100.00
804;BME280;25687;49.976;8.240;2023-12-14T08:43:20;99898.53;;;7.21;100.00
804;BME280;25687;49.976;8.240;2023-12-14T08:45:45;99910.50;;;7.21;100.00
804;BME280;25687;49.976;8.240;2023-12-14T08:48:11;99917.28;;;7.22;100.00
804;BME280;25687;49.976;8.240;2023-12-14T08:50:36;99922.06;;;7.30;100.00
804;BME280;25687;49.976;8.240;2023-12-14T08:53:01;99925.50;;;7.29;100.00
804;BME280;25687;49.976;8.240;2023-12-14T08:55:27;99933.47;;;7.41;100.00
804;BME280;25687;49.976;8.240;2023-12-14T08:57:52;99936.28;;;7.35;100.00
804;BME280;25687;49.976;8.240;2023-12-14T09:00:18;99948.19;;;7.36;100.00
804;BME280;25687;49.976;8.240;2023-12-14T09:02:44;99948.78;;;7.43;100.00
804;BME280;25687;49.976;8.240;2023-12-14T09:05:14;99954.78;;;7.61;100.00
804;BME280;25687;49.976;8.240;2023-12-14T09:07:41;99957.22;;;7.64;100.00
804;BME280;25687;49.976;8.240;2023-12-14T09:10:06;99960.34;;;7.71;100.00
804;BME280;25687;49.976;8.240;2023-12-14T09:12:33;99954.53;;;7.48;100.00
804;BME280;25687;49.976;8.240;2023-12-14T09:14:58;99961.66;;;7.61;100.00
804;BME280;25687;49.976;8.240;2023-12-14T09:17:24;99969.06;;;7.67;100.00
804;BME280;25687;49.976;8.240;2023-12-14T09:19:49;99976.44;;;7.54;100.00
804;BME280;25687;49.976;8.240;2023-12-14T09:22:14;99974.38;;;7.62;100.00
804;BME280;25687;49.976;8.240;2023-12-14T09:24:39;99984.00;;;7.76;100.00
804;BME280;25687;49.976;8.240;2023-12-14T09:27:05;99981.94;;;7.84;100.00
804;BME280;25687;49.976;8.240;2023-12-14T09:29:30;100000.47;;;7.89;100.00
804;BME280;25687;49.976;8.240;2023-12-14T09:31:55;100001.53;;;7.85;100.00
804;BME280;25687;49.976;8.240;2023-12-14T09:34:21;100005.59;;;7.89;100.00
804;BME280;25687;49.976;8.240;2023-12-14T09:36:46;100005.06;;;7.83;100.00
804;BME280;25687;49.976;8.240;2023-12-14T09:39:11;100008.44;;;8.02;100.00
804;BME280;25687;49.976;8.240;2023-12-14T09:41:37;100016.22;;;8.20;100.00
804;BME280;25687;49.976;8.240;2023-12-14T09:44:04;100026.44;;;8.20;100.00
804;BME280;25687;49.976;8.240;2023-12-14T09:46:30;100032.88;;;8.10;100.00
804;BME280;25687;49.976;8.240;2023-12-14T09:48:57;100034.28;;;7.98;100.00
804;BME280;25687;49.976;8.240;2023-12-14T09:51:22;100043.31;;;7.86;100.00
804;BME280;25687;49.976;8.240;2023-12-14T09:53:49;100050.91;;;7.68;100.00
804;BME280;25687;49.976;8.240;2023-12-14T09:56:14;100050.22;;;7.65;100.00
804;BME280;25687;49.976;8.240;2023-12-14T09:58:39;100051.44;;;7.56;100.00
804;BME280;25687;49.976;8.240;2023-12-14T10:01:21;100066.25;;;7.49;100.00
804;BME280;25687;49.976;8.240;2023-12-14T10:03:47;100067.06;;;7.50;100.00
804;BME280;25687;49.976;8.240;2023-12-14T10:06:12;100070.84;;;7.41;100.00
804;BME280;25687;49.976;8.240;2023-12-14T10:08:37;100072.44;;;7.43;100.00
804;BME280;25687;49.976;8.240;2023-12-14T10:11:14;100084.16;;;7.29;100.00
804;BME280;25687;49.976;8.240;2023-12-14T10:13:41;100082.63;;;7.24;100.00
804;BME280;25687;49.976;8.240;2023-12-14T10:16:07;100087.16;;;7.38;100.00
804;BME280;25687;49.976;8.240;2023-12-14T10:18:32;100086.78;;;7.27;100.00
804;BME280;25687;49.976;8.240;2023-12-14T10:20:59;100086.38;;;7.36;100.00
804;BME280;25687;49.976;8.240;2023-12-14T10:23:27;100085.06;;;7.48;100.00
804;BME280;25687;49.976;8.240;2023-12-14T10:25:52;100088.44;;;7.49;100.00
804;BME280;25687;49.976;8.240;2023-12-14T10:28:17;100093.22;;;7.56;100.00
804;BME280;25687;49.976;8.240;2023-12-14T10:30:43;100091.19;;;7.65;100.00
804;BME280;25687;49.976;8.240;2023-12-14T10:33:08;100092.13;;;7.83;100.00
804;BME280;25687;49.976;8.240;2023-12-14T10:35:34;100091.00;;;7.88;100.00
804;BME280;25687;49.976;8.240;2023-12-14T10:38:04;100091.53;;;7.76;100.00
804;BME280;25687;49.976;8.240;2023-12-14T10:40:35;100091.44;;;7.79;100.00
804;BME280;25687;49.976;8.240;2023-12-14T10:43:05;100095.59;;;7.61;100.00
804;BME280;25687;49.976;8.240;2023-12-14T10:45:32;100104.06;;;7.63;100.00
804;BME280;25687;49.976;8.240;2023-12-14T10:47:59;100097.13;;;7.65;100.00
804;BME280;25687;49.976;8.240;2023-12-14T10:50:29;100105.84;;;8.01;100.00
804;BME280;25687;49.976;8.240;2023-12-14T10:52:56;100106.97;;;8.14;100.00
804;BME280;25687;49.976;8.240;2023-12-14T10:55:33;100110.78;;;8.24;100.00
804;BME280;25687;49.976;8.240;2023-12-14T10:58:03;100115.78;;;8.28;100.00
804;BME280;25687;49.976;8.240;2023-12-14T11:00:28;100114.47;;;8.38;100.00
804;BME280;25687;49.976;8.240;2023-12-14T11:02:54;100116.66;;;8.47;100.00
804;BME280;25687;49.976;8.240;2023-12-14T11:05:22;100132.06;;;8.46;100.00
804;BME280;25687;49.976;8.240;2023-12-14T11:07:55;100137.72;;;8.33;100.00
804;BME280;25687;49.976;8.240;2023-12-14T11:10:22;100140.25;;;8.35;100.00
804;BME280;25687;49.976;8.240;2023-12-14T11:13:01;100142.66;;;8.38;100.00
804;BME280;25687;49.976;8.240;2023-12-14T11:15:38;100146.13;;;8.37;100.00
804;BME280;25687;49.976;8.240;2023-12-14T11:20:59;100147.19;;;7.93;100.00
804;BME280;25687;49.976;8.240;2023-12-14T11:25:52;100156.25;;;8.00;100.00
804;BME280;25687;49.976;8.240;2023-12-14T11:28:18;100157.78;;;8.04;100.00
804;BME280;25687;49.976;8.240;2023-12-14T11:30:44;100170.22;;;7.93;100.00
804;BME280;25687;49.976;8.240;2023-12-14T11:33:11;100175.41;;;7.91;100.00
804;BME280;25687;49.976;8.240;2023-12-14T11:35:36;100171.88;;;7.73;100.00
804;BME280;25687;49.976;8.240;2023-12-14T11:38:02;100182.28;;;7.70;100.00
804;BME280;25687;49.976;8.240;2023-12-14T11:40:35;100181.81;;;7.61;100.00
804;BME280;25687;49.976;8.240;2023-12-14T11:43:04;100190.25;;;7.63;100.00
804;BME280;25687;49.976;8.240;2023-12-14T11:45:40;100199.66;;;7.62;100.00
804;BME280;25687;49.976;8.240;2023-12-14T11:48:10;100204.38;;;7.51;100.00
804;BME280;25687;49.976;8.240;2023-12-14T11:50:40;100207.53;;;7.57;100.00
804;BME280;25687;49.976;8.240;2023-12-14T11:53:06;100206.78;;;7.55;100.00
804;BME280;25687;49.976;8.240;2023-12-14T11:55:34;100207.34;;;7.62;100.00
804;BME280;25687;49.976;8.240;2023-12-14T11:57:59;100209.53;;;7.71;100.00
804;BME280;25687;49.976;8.240;2023-12-14T12:00:29;100202.03;;;7.67;100.00
804;BME280;25687;49.976;8.240;2023-12-14T12:03:32;100200.47;;;7.42;100.00
804;BME280;25687;49.976;8.240;2023-12-14T12:05:58;100205.69;;;7.39;100.00
804;BME280;25687;49.976;8.240;2023-12-14T12:08:23;100210.09;;;7.35;100.00
804;BME280;25687;49.976;8.240;2023-12-14T12:10:49;100205.78;;;7.37;100.00
804;BME280;25687;49.976;8.240;2023-12-14T12:13:18;100207.44;;;7.38;100.00
804;BME280;25687;49.976;8.240;2023-12-14T12:15:44;100212.72;;;7.56;100.00
804;BME280;25687;49.976;8.240;2023-12-14T12:18:13;100210.22;;;7.54;100.00
804;BME280;25687;49.976;8.240;2023-12-14T12:20:39;100210.75;;;7.40;100.00
804;BME280;25687;49.976;8.240;2023-12-14T12:23:04;100214.00;;;7.23;100.00
804;BME280;25687;49.976;8.240;2023-12-14T12:25:30;100212.91;;;7.29;100.00
804;BME280;25687;49.976;8.240;2023-12-14T12:27:57;100215.03;;;7.40;100.00
804;BME280;25687;49.976;8.240;2023-12-14T12:30:22;100212.22;;;7.68;100.00
804;BME280;25687;49.976;8.240;2023-12-14T12:32:48;100210.31;;;7.94;100.00
804;BME280;25687;49.976;8.240;2023-12-14T12:35:14;100204.47;;;8.11;100.00
804;BME280;25687;49.976;8.240;2023-12-14T12:37:40;100217.44;;;8.27;100.00
804;BME280;25687;49.976;8.240;2023-12-14T12:40:05;100201.25;;;8.27;100.00
804;BME280;25687;49.976;8.240;2023-12-14T12:42:32;100212.28;;;8.29;100.00
804;BME280;25687;49.976;8.240;2023-12-14T12:44:57;100213.81;;;8.12;100.00
804;BME280;25687;49.976;8.240;2023-12-14T12:47:23;100214.34;;;7.79;100.00
804;BME280;25687;49.976;8.240;2023-12-14T12:49:48;100225.50;;;7.56;100.00
804;BME280;25687;49.976;8.240;2023-12-14T12:52:13;100233.84;;;7.39;100.00
804;BME280;25687;49.976;8.240;2023-12-14T12:54:38;100235.03;;;7.30;100.00
804;BME280;25687;49.976;8.240;2023-12-14T12:57:05;100252.47;;;7.20;100.00
804;BME280;25687;49.976;8.240;2023-12-14T12:59:30;100247.00;;;7.07;100.00
804;BME280;25687;49.976;8.240;2023-12-14T13:01:55;100254.25;;;6.96;100.00
804;BME280;25687;49.976;8.240;2023-12-14T13:04:21;100242.06;;;6.79;100.00
804;BME280;25687;49.976;8.240;2023-12-14T13:06:47;100260.47;;;6.89;100.00
804;BME280;25687;49.976;8.240;2023-12-14T13:09:16;100258.19;;;6.81;100.00
804;BME280;25687;49.976;8.240;2023-12-14T13:11:45;100257.84;;;6.90;100.00
804;BME280;25687;49.976;8.240;2023-12-14T13:14:11;100259.38;;;6.94;100.00
804;BME280;25687;49.976;8.240;2023-12-14T13:16:37;100260.25;;;6.71;100.00
804;BME280;25687;49.976;8.240;2023-12-14T13:19:03;100267.03;;;6.72;100.00